Estación Meteorológica Peña el Pijo (Robertgarden) [ 05/25/19 23:21:01 CEST ]

Fecha Hora Presion(HPa) Temp (°C) Humedad % Rocio (°C) Viento ( m/s) Direccion Lluvia 1Hora(mm) Lluvia 24H(mm) LLuvia Total(mm)
2019-Mar-22 01:01:48 1014.500 7.1 70 2.0         184.40
2019-Mar-22 02:01:44 1014.600 8.2 72 3.5         184.40
2019-Mar-22 03:10:06 1014.400 8.7 73 4.1         184.40
2019-Mar-22 04:01:39 1014.000 8.4 74 4.0         184.40
2019-Mar-22 05:03:09 1013.800 10.0 76 5.9         184.40
2019-Mar-22 06:01:43 1013.700 11.2 78 7.5         184.40
2019-Mar-22 07:01:50 1014.100 10.3 79 6.8         184.40
2019-Mar-22 08:01:40 1014.300 8.2 80 5.0         184.40
2019-Mar-22 09:01:56 1014.400 5.2 77 1.5         184.40
2019-Mar-22 10:01:49 1014.600 8.9 54 0.0         184.40
2019-Mar-22 11:01:49 1014.500 11.2 48 0.6         184.40
2019-Mar-22 12:02:04 1014.300 12.4 44 0.4         184.40
2019-Mar-22 13:01:47 1013.700 12.9 43 0.5         184.40
2019-Mar-22 14:01:53 1013.300 14.1 42 1.3         184.40
2019-Mar-22 15:01:53 1012.800 14.6 41 1.5         184.40
2019-Mar-22 16:01:44 1012.500 14.1 39 0.3         184.40
2019-Mar-22 17:01:53 1012.500 12.3 42 -0.3 0.7 NNE     184.40
2019-Mar-22 18:01:46 1012.700 12.4 43 0.1 2.8 NNE     184.40
2019-Mar-22 19:01:55 1012.900 11.4 47 0.4 2.3 E     184.40
2019-Mar-22 20:01:43 1013.700 10.3 51 0.6         184.40
2019-Mar-22 21:01:52 1014.300 8.5 57 0.4         184.40
2019-Mar-22 22:01:41 1014.600 6.7 61 -0.3         184.40
2019-Mar-22 23:01:47 1014.800 5.6 66 -0.3         184.40

Temperatura Máxima:14°    Temperatura Mínima:
Presión Máxima:1014.800 Hpa    Presión Mínima:1012.500 Hpa


Volver